x

Ilm3 - 27 Miles Se Of Wrightsville Beach, Nc (41037) Weather Station

7:08 - Sun 23rd Apr 2017 All times are EDT. -4 hours from GMT.

  • Wind
    18mph, 29mph gusts
  • Sea Temp 70°f
  • Air Temp 67°f
  • Sea Pressure 1012.2mb
  • Ilm3 - 27 Miles Se Of Wrightsville Beach, Nc
  • Ilm3 - 27 Miles Se Of Wrightsville Beach, Nc

More Historic Weather Station data

Upgrade to MSW Pro to gain access to the past 30 days of data for over 8000 Wavebouys and Weather Stations around the globe.

Join Pro

Comparision Forecast

View Surf forecast
   
dim. 04/23 7:08 18 29 mph 1012.2mb 70f 67f
6:08 2 7 mph 1011mb 70f 71f
5:08 7 9 mph 1011.2mb 70f 71f
4:08 7 11 mph 1011.3mb 70f 71f
3:08 13 20 mph 1011mb 70f 72f
2:08 13 22 mph 1011.1mb 70f 72f
1:08 16 22 mph 1011.8mb 70f 72f
12:08 13 18 mph 1012.5mb 70f 72f
sam. 04/22 11:08 16 20 mph 1011.7mb 70f 72f
10:08 16 22 mph 1011.3mb 70f 72f
9:08 16 22 mph 1010.8mb 70f 72f
8:08 18 25 mph 1011.2mb 71f 72f
7:08 16 22 mph 1010.8mb 71f 73f
6:08 16 22 mph 1010.3mb 71f 73f
5:08 18 25 mph 1010.6mb 71f 72f
4:08 18 25 mph 1011.8mb 71f 72f
3:08 18 25 mph 1012.1mb 71f 72f
2:08 20 27 mph 1012.3mb 71f 72f
1:08 18 25 mph 1012.9mb 71f 72f
12:08 16 22 mph 1013.5mb 70f 72f
11:08 16 22 mph 1014.7mb 70f 72f
10:08 13 20 mph 1014.2mb 70f 71f
9:08 13 18 mph 1013.6mb 70f 71f
8:08 13 20 mph 1013.5mb 70f 71f
7:08 13 18 mph 1013.2mb 70f 71f
6:08 13 18 mph 1012.9mb 70f 71f
5:08 13 18 mph 1012.8mb 70f 71f
4:08 13 18 mph 1012.7mb 70f 71f
3:08 13 20 mph 1013.1mb 70f 71f
2:08 16 22 mph 1013.2mb 70f 71f
1:08 16 22 mph 1014.3mb 70f 71f
12:08 16 22 mph 1014.5mb 70f 71f
ven. 04/21 11:08 16 25 mph 1014mb 70f 71f
10:08 16 25 mph 1013.9mb 70f 72f
9:08 18 25 mph 1013.7mb 70f 72f
8:08 16 22 mph 1013.7mb 70f 72f
7:08 16 25 mph 1013.2mb 70f 72f
6:08 18 22 mph 1013.5mb 70f 72f
5:08 18 25 mph 1013.3mb 70f 72f
4:08 20 27 mph 1013.5mb 70f 71f
3:08 18 25 mph 1015mb 70f 71f
2:08 18 25 mph 1015.8mb 70f 71f
1:08 18 22 mph 1015.7mb 70f 71f
12:08 16 20 mph 1016.1mb 70f 71f
11:08 13 20 mph 1016.6mb 70f 71f
10:08 13 18 mph 1017.1mb 70f 70f
9:08 13 20 mph 1016.8mb 70f 70f
8:08 13 20 mph 1016.9mb 70f 70f
7:08 13 20 mph 1016.7mb 70f 70f
6:08 16 22 mph 1015.9mb 70f 70f
5:08 13 20 mph 1016.1mb 70f 70f
4:08 16 22 mph 1016.2mb 70f 70f
3:08 13 18 mph 1016.1mb 71f 70f
2:08 13 18 mph 1016.9mb 71f 70f
1:08 13 20 mph 1017.8mb 71f 71f
12:08 13 18 mph 1017.7mb 70f 71f
jeu. 04/20 11:08 13 18 mph 1017.8mb 71f 71f
10:08 11 18 mph 1017.9mb 71f 71f
9:08 13 18 mph 1017.6mb 71f 71f
8:08 13 20 mph 1017.7mb 72f 71f
7:08 11 18 mph 1018.2mb 73f 72f
6:08 13 18 mph 1017.9mb 73f 72f
5:08 13 18 mph 1017.8mb 73f 72f
4:08 11 16 mph 1017.6mb 73f 73f
3:08 4 9 mph 1018.3mb 71f 73f
2:08 2 4 mph 1020.1mb 71f 72f
1:08 2 4 mph 1020.5mb 71f 72f
12:08 4 7 mph 1021mb 70f 71f
11:08 7 11 mph 1021.2mb 70f 71f
10:08 9 16 mph 1021.7mb 70f 71f
9:08 2 9 mph 1022.3mb 69f 71f
8:08 4 7 mph 1021.9mb 69f 71f
7:08 4 7 mph 1021.2mb 69f 71f
6:08 7 11 mph 1020.7mb 69f 71f
5:08 9 13 mph 1021.2mb 69f 72f
4:08 11 16 mph 1021.2mb 69f 72f
3:08 13 18 mph 1021.3mb 69f 72f
2:08 13 20 mph 1022.1mb 69f 71f
1:08 13 22 mph 1022.4mb 69f 71f
12:08 11 18 mph 1023.6mb 69f 71f
mer. 04/19 11:08 13 20 mph 1023.8mb 70f 70f
10:08 13 18 mph 1023.8mb 70f 71f
9:08 9 13 mph 1024.1mb 70f 71f
8:08 11 18 mph 1023.3mb 70f 71f
7:08 13 20 mph 1023.2mb 70f 70f